createdAt,value
2022-08-24T00:00:09.325Z,22.45
2022-08-24T00:02:35.884Z,22.22
2022-08-24T00:05:03.352Z,22.21
2022-08-24T00:07:29.846Z,22.03
2022-08-24T00:09:56.311Z,21.87
2022-08-24T00:12:23.315Z,21.81
2022-08-24T00:14:50.548Z,21.92
2022-08-24T00:17:18.019Z,22.01
2022-08-24T00:19:44.507Z,22.04
2022-08-24T00:22:11.003Z,21.88
2022-08-24T00:24:37.581Z,21.78
2022-08-24T00:27:04.653Z,21.80
2022-08-24T00:29:31.053Z,21.72
2022-08-24T00:31:57.505Z,21.57
2022-08-24T00:34:25.441Z,21.54
2022-08-24T00:36:53.145Z,21.62
2022-08-24T00:39:20.488Z,21.58
2022-08-24T00:41:49.249Z,21.61
2022-08-24T00:44:16.893Z,21.65
2022-08-24T00:46:56.484Z,21.53
2022-08-24T00:49:33.632Z,21.52
2022-08-24T00:52:12.335Z,21.57
2022-08-24T00:54:46.483Z,21.63
2022-08-24T00:57:17.179Z,21.61
2022-08-24T00:59:49.186Z,21.55
2022-08-24T01:02:22.237Z,21.47
2022-08-24T01:04:55.381Z,21.50
2022-08-24T01:07:26.900Z,21.54
2022-08-24T01:09:57.915Z,21.50
2022-08-24T01:12:25.459Z,21.45
2022-08-24T01:14:52.703Z,21.38
2022-08-24T01:17:38.025Z,21.35
2022-08-24T01:20:07.230Z,21.31
2022-08-24T01:23:11.406Z,21.21
2022-08-24T01:25:41.860Z,21.22
2022-08-24T01:28:16.703Z,21.24
2022-08-24T01:30:47.218Z,21.21
2022-08-24T01:33:28.208Z,21.33
2022-08-24T01:35:59.606Z,21.38
2022-08-24T01:38:26.665Z,21.45
2022-08-24T01:40:57.617Z,21.45
2022-08-24T01:43:24.445Z,21.43
2022-08-24T01:45:51.491Z,21.44
2022-08-24T01:48:19.935Z,21.40
2022-08-24T01:50:49.548Z,21.38
2022-08-24T01:53:16.173Z,21.35
2022-08-24T01:55:44.887Z,21.06
2022-08-24T01:58:12.323Z,21.01
2022-08-24T02:00:39.411Z,21.15
2022-08-24T02:03:06.859Z,21.06
2022-08-24T02:05:34.471Z,20.88
2022-08-24T02:08:01.159Z,21.09
2022-08-24T02:10:28.796Z,21.05
2022-08-24T02:12:58.396Z,20.96
2022-08-24T02:15:31.584Z,20.74
2022-08-24T02:17:58.393Z,20.89
2022-08-24T02:20:25.030Z,20.83
2022-08-24T02:22:52.513Z,20.58
2022-08-24T02:25:20.158Z,20.54
2022-08-24T02:27:46.612Z,20.64
2022-08-24T02:30:13.939Z,20.72
2022-08-24T02:32:41.811Z,20.83
2022-08-24T02:35:08.808Z,20.88
2022-08-24T02:37:35.308Z,20.90
2022-08-24T02:40:10.254Z,20.86
2022-08-24T02:42:37.051Z,20.73
2022-08-24T02:45:05.492Z,20.79
2022-08-24T02:47:38.367Z,20.68
2022-08-24T02:50:08.687Z,20.53
2022-08-24T02:52:37.127Z,20.56
2022-08-24T02:55:04.540Z,20.54
2022-08-24T02:57:31.015Z,20.52
2022-08-24T02:59:57.527Z,20.50
2022-08-24T03:02:23.973Z,20.51
2022-08-24T03:04:50.494Z,20.47
2022-08-24T03:07:16.933Z,20.26
2022-08-24T03:09:43.353Z,20.23
2022-08-24T03:12:09.784Z,20.04
2022-08-24T03:14:36.264Z,20.10
2022-08-24T03:17:03.144Z,20.16
2022-08-24T03:19:29.938Z,20.15
2022-08-24T03:21:56.731Z,20.18
2022-08-24T03:24:23.415Z,20.22
2022-08-24T03:26:50.230Z,20.18
2022-08-24T03:29:16.870Z,19.97
2022-08-24T03:31:43.713Z,20.09
2022-08-24T03:34:13.383Z,20.18
2022-08-24T03:36:46.752Z,20.22
2022-08-24T03:39:14.803Z,20.17
2022-08-24T03:41:41.613Z,20.19
2022-08-24T03:44:08.187Z,20.20
2022-08-24T03:46:36.731Z,20.16
2022-08-24T03:49:06.030Z,20.20
2022-08-24T03:51:32.451Z,20.19
2022-08-24T03:54:00.487Z,20.23
2022-08-24T03:56:27.706Z,20.27
2022-08-24T03:58:55.569Z,20.17
2022-08-24T04:01:22.401Z,20.10
2022-08-24T04:03:49.363Z,20.08
2022-08-24T04:06:18.255Z,19.95
2022-08-24T04:08:45.079Z,19.97
2022-08-24T04:11:13.339Z,19.94
2022-08-24T04:13:40.597Z,19.87
2022-08-24T04:16:08.686Z,19.88
2022-08-24T04:18:36.146Z,19.87
2022-08-24T04:21:03.166Z,19.74
2022-08-24T04:23:47.121Z,19.73
2022-08-24T04:26:15.429Z,19.62
2022-08-24T04:28:41.976Z,19.46
2022-08-24T04:31:08.717Z,19.39
2022-08-24T04:33:35.691Z,19.28
2022-08-24T04:36:06.004Z,19.29
2022-08-24T04:38:32.443Z,19.37
2022-08-24T04:41:00.199Z,19.29
2022-08-24T04:43:26.908Z,19.14
2022-08-24T04:45:53.384Z,19.07
2022-08-24T04:48:19.938Z,18.95
2022-08-24T04:50:46.458Z,18.74
2022-08-24T04:53:14.118Z,18.63
2022-08-24T04:55:46.390Z,18.60
2022-08-24T04:58:14.856Z,18.56
2022-08-24T05:00:41.313Z,18.50
2022-08-24T05:03:07.771Z,18.39
2022-08-24T05:05:34.382Z,18.35
2022-08-24T05:08:00.856Z,18.39
2022-08-24T05:10:27.556Z,18.41
2022-08-24T05:13:00.190Z,18.41
2022-08-24T05:15:26.627Z,18.46
2022-08-24T05:17:53.051Z,18.35
2022-08-24T05:20:20.151Z,18.37
2022-08-24T05:22:46.579Z,18.35
2022-08-24T05:25:12.995Z,18.28
2022-08-24T05:27:39.417Z,18.30
2022-08-24T05:30:06.429Z,18.30
2022-08-24T05:32:32.883Z,18.36
2022-08-24T05:35:01.214Z,18.39
2022-08-24T05:37:27.739Z,18.32
2022-08-24T05:39:54.178Z,18.33
2022-08-24T05:42:20.606Z,18.35
2022-08-24T05:44:47.110Z,18.35
2022-08-24T05:47:14.072Z,18.43
2022-08-24T05:49:41.679Z,18.44
2022-08-24T05:52:08.821Z,18.56
2022-08-24T05:54:35.249Z,18.68
2022-08-24T05:57:04.708Z,18.67
2022-08-24T05:59:32.197Z,18.60
2022-08-24T06:01:58.824Z,18.72
2022-08-24T06:04:25.719Z,18.69
2022-08-24T06:06:52.818Z,18.64
2022-08-24T06:09:19.259Z,18.66
2022-08-24T06:11:46.839Z,18.68
2022-08-24T06:14:16.175Z,18.70
2022-08-24T06:16:45.132Z,18.71
2022-08-24T06:19:13.583Z,18.71
2022-08-24T06:21:40.987Z,18.73
2022-08-24T06:24:07.875Z,18.74
2022-08-24T06:26:52.914Z,18.77
2022-08-24T06:29:20.632Z,18.95
2022-08-24T06:31:54.125Z,19.08
2022-08-24T06:34:23.622Z,19.15
2022-08-24T06:36:50.104Z,19.25
2022-08-24T06:39:16.562Z,19.33
2022-08-24T06:41:43.965Z,19.54
2022-08-24T06:44:10.539Z,19.78
2022-08-24T06:46:37.072Z,20.05
2022-08-24T06:49:04.184Z,20.30
2022-08-24T06:51:32.378Z,20.41
2022-08-24T06:53:59.058Z,20.56
2022-08-24T06:56:25.561Z,20.64
2022-08-24T06:58:51.956Z,20.73
2022-08-24T07:01:21.422Z,20.83
2022-08-24T07:03:48.193Z,20.87
2022-08-24T07:06:14.902Z,20.98
2022-08-24T07:08:42.835Z,21.05
2022-08-24T07:11:11.137Z,21.09
2022-08-24T07:13:37.878Z,21.27
2022-08-24T07:16:05.134Z,21.34
2022-08-24T07:18:31.560Z,21.49
2022-08-24T07:21:02.248Z,21.63
2022-08-24T07:23:41.139Z,21.66
2022-08-24T07:26:21.144Z,21.86
2022-08-24T07:29:01.098Z,22.05
2022-08-24T07:31:29.997Z,22.09
2022-08-24T07:33:58.521Z,22.17
2022-08-24T07:36:24.936Z,22.23
2022-08-24T07:38:55.056Z,22.34
2022-08-24T07:41:51.548Z,22.48
2022-08-24T07:44:10.993Z,22.58
2022-08-24T07:46:39.150Z,22.90
2022-08-24T07:49:31.674Z,23.23
2022-08-24T07:51:55.747Z,23.86
2022-08-24T07:54:22.205Z,24.67
2022-08-24T07:56:50.158Z,25.32
2022-08-24T07:59:17.447Z,25.66
2022-08-24T08:01:44.056Z,25.92
2022-08-24T08:04:10.550Z,26.36
2022-08-24T08:06:37.390Z,26.51
2022-08-24T08:09:05.588Z,26.74
2022-08-24T08:11:32.809Z,26.74
2022-08-24T08:13:59.473Z,26.74
2022-08-24T08:16:26.340Z,26.40
2022-08-24T08:19:09.268Z,26.57
2022-08-24T08:22:04.960Z,26.84
2022-08-24T08:24:31.381Z,26.74
2022-08-24T08:26:57.977Z,26.68
2022-08-24T08:29:25.625Z,26.93
2022-08-24T08:31:52.631Z,26.96
2022-08-24T08:34:19.048Z,26.53
2022-08-24T08:36:45.887Z,26.69
2022-08-24T08:39:15.694Z,26.33
2022-08-24T08:42:08.618Z,26.51
2022-08-24T08:44:53.520Z,26.50
2022-08-24T08:47:46.182Z,26.43
2022-08-24T08:50:26.207Z,26.47
2022-08-24T08:53:04.888Z,26.49
2022-08-24T08:55:56.197Z,26.65
2022-08-24T08:58:57.391Z,26.95
2022-08-24T09:02:01.661Z,27.10
2022-08-24T09:04:46.341Z,27.42
2022-08-24T09:07:30.452Z,27.51
2022-08-24T09:10:33.823Z,28.10
2022-08-24T09:13:16.036Z,28.88
2022-08-24T09:16:22.799Z,29.87
2022-08-24T09:19:02.125Z,30.65
2022-08-24T09:22:05.988Z,30.79
2022-08-24T09:24:53.898Z,30.71
2022-08-24T09:27:42.046Z,30.20
2022-08-24T09:30:34.611Z,30.45
2022-08-24T09:33:14.815Z,30.44
2022-08-24T09:35:50.419Z,30.87
2022-08-24T09:38:39.491Z,31.45
2022-08-24T09:41:45.171Z,31.69
2022-08-24T09:44:41.944Z,32.02
2022-08-24T09:47:26.518Z,31.93
2022-08-24T09:50:42.286Z,31.79
2022-08-24T09:53:30.575Z,31.78
2022-08-24T09:56:22.017Z,31.79
2022-08-24T09:59:11.492Z,31.19
2022-08-24T10:02:08.634Z,31.11
2022-08-24T10:04:53.420Z,30.97
2022-08-24T10:07:40.201Z,31.03
2022-08-24T10:10:13.722Z,30.68
2022-08-24T10:12:57.187Z,30.67
2022-08-24T10:15:37.003Z,30.73
2022-08-24T10:18:38.465Z,30.27
2022-08-24T10:21:29.287Z,30.27
2022-08-24T10:24:49.415Z,30.39
2022-08-24T10:27:20.879Z,30.54
2022-08-24T10:30:08.928Z,30.68
2022-08-24T10:33:03.994Z,30.55
2022-08-24T10:35:54.604Z,30.78
2022-08-24T10:39:17.549Z,31.09
2022-08-24T10:42:43.420Z,31.17
2022-08-24T10:45:35.796Z,31.26
2022-08-24T10:48:35.968Z,31.09
2022-08-24T10:51:34.553Z,30.58
2022-08-24T10:54:01.308Z,30.60
2022-08-24T10:56:33.735Z,30.56
2022-08-24T10:59:13.942Z,30.69
2022-08-24T11:01:40.480Z,30.74
2022-08-24T11:04:12.432Z,30.87
2022-08-24T11:07:09.660Z,31.14
2022-08-24T11:09:46.540Z,31.32
2022-08-24T11:12:32.472Z,31.19
2022-08-24T11:15:24.772Z,31.33
2022-08-24T11:17:58.842Z,31.28
2022-08-24T11:20:30.277Z,31.51
2022-08-24T11:23:08.667Z,31.77
2022-08-24T11:25:37.849Z,31.82
2022-08-24T11:28:15.590Z,31.98
2022-08-24T11:30:42.154Z,31.94
2022-08-24T11:33:27.313Z,31.73
2022-08-24T11:35:53.929Z,31.87
2022-08-24T11:38:23.747Z,31.68
2022-08-24T11:40:54.624Z,31.42
2022-08-24T11:43:33.049Z,31.62
2022-08-24T11:46:07.353Z,31.60
2022-08-24T11:48:43.556Z,31.82
2022-08-24T11:51:25.133Z,31.72
2022-08-24T11:54:03.520Z,31.71
2022-08-24T11:56:50.869Z,31.84
2022-08-24T11:59:29.183Z,31.63
2022-08-24T12:02:11.931Z,31.87
2022-08-24T12:04:54.811Z,32.01
2022-08-24T12:07:52.100Z,31.96
2022-08-24T12:10:36.691Z,31.74
2022-08-24T12:13:03.541Z,31.63
2022-08-24T12:15:43.475Z,31.31
2022-08-24T12:18:28.236Z,31.36
2022-08-24T12:20:56.756Z,31.40
2022-08-24T12:23:37.421Z,31.39
2022-08-24T12:26:13.277Z,31.63
2022-08-24T12:28:59.395Z,31.64
2022-08-24T12:31:43.910Z,31.77
2022-08-24T12:34:18.246Z,31.82
2022-08-24T12:37:01.174Z,31.67
2022-08-24T12:39:36.626Z,31.67
2022-08-24T12:42:31.724Z,31.79
2022-08-24T12:45:09.148Z,31.76
2022-08-24T12:47:44.473Z,31.71
2022-08-24T12:50:24.590Z,31.73
2022-08-24T12:53:18.509Z,31.73
2022-08-24T12:56:14.700Z,31.50
2022-08-24T12:59:02.436Z,31.62
2022-08-24T13:01:36.032Z,31.71
2022-08-24T13:04:16.027Z,31.73
2022-08-24T13:06:49.289Z,31.78
2022-08-24T13:09:35.432Z,31.83
2022-08-24T13:12:32.913Z,31.93
2022-08-24T13:15:28.133Z,31.79
2022-08-24T13:18:02.637Z,31.96
2022-08-24T13:20:32.523Z,31.99
2022-08-24T13:23:21.623Z,31.87
2022-08-24T13:25:48.036Z,31.79
2022-08-24T13:28:20.654Z,31.76
2022-08-24T13:31:32.504Z,31.76
2022-08-24T13:34:09.127Z,31.78
2022-08-24T13:36:42.957Z,31.76
2022-08-24T13:39:17.714Z,31.80
2022-08-24T13:42:05.680Z,31.77
2022-08-24T13:44:46.064Z,31.66
2022-08-24T13:47:19.793Z,31.63
2022-08-24T13:50:08.154Z,31.73
2022-08-24T13:52:43.100Z,31.68
2022-08-24T13:55:14.738Z,31.70
2022-08-24T13:57:45.083Z,31.70
2022-08-24T14:00:15.030Z,31.72
2022-08-24T14:03:08.132Z,31.83
2022-08-24T14:05:49.817Z,31.84
2022-08-24T14:08:40.386Z,31.71
2022-08-24T14:11:32.731Z,31.91
2022-08-24T14:14:16.999Z,32.05
2022-08-24T14:17:23.411Z,32.07
2022-08-24T14:20:00.712Z,32.01
2022-08-24T14:22:36.314Z,31.96
2022-08-24T14:25:23.626Z,31.98
2022-08-24T14:27:58.936Z,31.83
2022-08-24T14:30:25.332Z,31.85
2022-08-24T14:32:57.477Z,31.86
2022-08-24T14:35:39.029Z,31.93
2022-08-24T14:38:14.617Z,31.90
2022-08-24T14:41:17.923Z,31.81
2022-08-24T14:44:06.832Z,31.94
2022-08-24T14:46:43.679Z,31.87
2022-08-24T14:49:35.587Z,31.87
2022-08-24T14:52:22.175Z,31.70
2022-08-24T14:55:11.053Z,31.73
2022-08-24T14:57:49.404Z,31.81
2022-08-24T15:00:20.426Z,31.90
2022-08-24T15:03:08.219Z,31.99
2022-08-24T15:05:34.984Z,31.99
2022-08-24T15:08:29.502Z,32.04
2022-08-24T15:11:02.339Z,32.02
2022-08-24T15:13:40.518Z,31.97
2022-08-24T15:16:33.361Z,32.03
2022-08-24T15:19:09.114Z,31.88
2022-08-24T15:21:56.814Z,31.87
2022-08-24T15:24:42.631Z,31.81
2022-08-24T15:27:55.740Z,31.82
2022-08-24T15:30:34.676Z,31.74
2022-08-24T15:33:05.864Z,31.82
2022-08-24T15:35:38.142Z,31.89
2022-08-24T15:38:22.616Z,31.97
2022-08-24T15:40:53.066Z,32.08
2022-08-24T15:43:19.718Z,32.07
2022-08-24T15:45:51.221Z,32.11
2022-08-24T15:48:21.339Z,32.04
2022-08-24T15:50:48.666Z,32.01
2022-08-24T15:53:33.380Z,32.01
2022-08-24T15:56:25.669Z,32.02
2022-08-24T15:58:52.271Z,31.83
2022-08-24T16:01:40.779Z,31.91
2022-08-24T16:04:35.076Z,32.07
2022-08-24T16:07:01.573Z,32.05
2022-08-24T16:09:27.954Z,32.07
2022-08-24T16:12:12.727Z,32.12
2022-08-24T16:15:17.145Z,32.37
2022-08-24T16:17:54.893Z,32.60
2022-08-24T16:20:25.059Z,32.53
2022-08-24T16:23:28.564Z,32.56
2022-08-24T16:26:21.058Z,32.42
2022-08-24T16:28:48.673Z,32.56
2022-08-24T16:31:40.927Z,32.90
2022-08-24T16:34:44.191Z,32.87
2022-08-24T16:37:11.359Z,32.67
2022-08-24T16:39:38.019Z,32.56
2022-08-24T16:42:10.677Z,32.77
2022-08-24T16:44:43.574Z,33.16
2022-08-24T16:47:10.255Z,32.98
2022-08-24T16:49:37.372Z,32.73
2022-08-24T16:52:04.178Z,32.59
2022-08-24T16:54:31.710Z,32.35
2022-08-24T16:57:11.416Z,31.97
2022-08-24T16:59:37.946Z,31.59
2022-08-24T17:02:04.539Z,31.45
2022-08-24T17:04:32.315Z,31.29
2022-08-24T17:06:59.075Z,31.14
2022-08-24T17:09:25.575Z,31.10
2022-08-24T17:11:52.036Z,31.03
2022-08-24T17:14:19.558Z,30.91
2022-08-24T17:16:46.825Z,30.86
2022-08-24T17:19:17.364Z,30.81
2022-08-24T17:21:44.838Z,30.65
2022-08-24T17:24:11.825Z,30.61
2022-08-24T17:26:44.925Z,30.54
2022-08-24T17:29:15.301Z,30.51
2022-08-24T17:31:47.129Z,30.54
2022-08-24T17:34:13.811Z,30.53
2022-08-24T17:36:41.448Z,30.48
2022-08-24T17:39:11.126Z,30.44
2022-08-24T17:41:38.243Z,30.36
2022-08-24T17:44:08.330Z,30.30
2022-08-24T17:46:35.308Z,30.28
2022-08-24T17:49:01.792Z,30.25
2022-08-24T17:51:28.206Z,30.25
2022-08-24T17:53:54.682Z,30.22
2022-08-24T17:56:21.384Z,30.17
2022-08-24T17:59:13.930Z,30.07
2022-08-24T18:01:40.518Z,30.00
2022-08-24T18:04:06.948Z,30.03
2022-08-24T18:06:33.379Z,29.90
2022-08-24T18:09:03.906Z,29.81
2022-08-24T18:11:30.912Z,29.70
2022-08-24T18:13:57.319Z,29.67
2022-08-24T18:16:27.447Z,29.65
2022-08-24T18:18:55.200Z,29.56
2022-08-24T18:21:22.426Z,29.48
2022-08-24T18:23:50.239Z,29.38
2022-08-24T18:26:21.490Z,29.32
2022-08-24T18:28:53.868Z,29.28
2022-08-24T18:31:22.500Z,29.24
2022-08-24T18:33:49.852Z,29.14
2022-08-24T18:36:17.197Z,29.03
2022-08-24T18:38:43.587Z,28.95
2022-08-24T18:41:11.068Z,28.91
2022-08-24T18:43:37.742Z,28.89
2022-08-24T18:46:05.829Z,28.82
2022-08-24T18:48:32.555Z,28.67
2022-08-24T18:50:59.160Z,28.63
2022-08-24T18:53:26.811Z,28.67
2022-08-24T18:55:53.298Z,28.61
2022-08-24T18:58:19.923Z,28.58
2022-08-24T19:00:47.437Z,28.54
2022-08-24T19:03:17.246Z,28.51
2022-08-24T19:05:45.384Z,28.52
2022-08-24T19:08:12.256Z,28.44
2022-08-24T19:10:39.437Z,28.30
2022-08-24T19:13:15.380Z,28.29
2022-08-24T19:15:42.754Z,28.15
2022-08-24T19:18:11.244Z,28.07
2022-08-24T19:20:47.452Z,27.99
2022-08-24T19:23:20.294Z,27.99
2022-08-24T19:25:47.210Z,27.91
2022-08-24T19:28:13.924Z,27.87
2022-08-24T19:30:42.119Z,27.76
2022-08-24T19:33:13.816Z,27.80
2022-08-24T19:35:40.599Z,27.75
2022-08-24T19:38:07.322Z,27.68
2022-08-24T19:40:33.707Z,27.57
2022-08-24T19:43:02.489Z,27.45
2022-08-24T19:45:47.798Z,27.46
2022-08-24T19:48:14.236Z,27.39
2022-08-24T19:50:41.327Z,27.35
2022-08-24T19:53:10.161Z,27.33
2022-08-24T19:55:36.725Z,27.35
2022-08-24T19:58:16.110Z,27.32
2022-08-24T20:00:48.274Z,27.22
2022-08-24T20:03:18.644Z,27.14
2022-08-24T20:05:45.707Z,27.09
2022-08-24T20:08:12.831Z,27.08
2022-08-24T20:10:39.687Z,27.06
2022-08-24T20:13:06.461Z,26.92
2022-08-24T20:15:33.955Z,26.86
2022-08-24T20:18:00.626Z,26.82
2022-08-24T20:20:28.487Z,26.75
2022-08-24T20:22:55.554Z,26.74
2022-08-24T20:25:22.514Z,26.66
2022-08-24T20:27:52.422Z,26.65
2022-08-24T20:30:24.693Z,26.65
2022-08-24T20:32:51.154Z,26.55
2022-08-24T20:35:17.631Z,26.42
2022-08-24T20:37:44.411Z,26.40
2022-08-24T20:40:15.274Z,26.35
2022-08-24T20:42:42.026Z,26.36
2022-08-24T20:45:12.711Z,26.37
2022-08-24T20:47:45.702Z,26.32
2022-08-24T20:50:12.274Z,26.24
2022-08-24T20:52:42.063Z,26.29
2022-08-24T20:55:10.811Z,26.26
2022-08-24T20:57:37.683Z,26.23
2022-08-24T21:00:07.233Z,26.14
2022-08-24T21:02:33.634Z,26.12
2022-08-24T21:05:00.075Z,26.04
2022-08-24T21:07:26.565Z,26.07
2022-08-24T21:09:53.393Z,26.04
2022-08-24T21:12:19.801Z,25.95
2022-08-24T21:14:46.196Z,25.95
2022-08-24T21:17:12.728Z,25.96
2022-08-24T21:19:39.172Z,25.99
2022-08-24T21:22:06.121Z,25.97
2022-08-24T21:24:32.550Z,25.92
2022-08-24T21:27:01.737Z,25.86
2022-08-24T21:29:28.757Z,25.80
2022-08-24T21:32:13.548Z,25.86
2022-08-24T21:34:42.600Z,25.79
2022-08-24T21:37:15.221Z,25.76
2022-08-24T21:39:42.355Z,25.81
2022-08-24T21:42:09.496Z,25.78
2022-08-24T21:44:36.761Z,25.80
2022-08-24T21:47:05.700Z,25.71
2022-08-24T21:49:33.536Z,25.76
2022-08-24T21:52:00.991Z,25.67
2022-08-24T21:54:27.435Z,25.70
2022-08-24T21:56:54.075Z,25.70
2022-08-24T21:59:20.496Z,25.48
2022-08-24T22:01:47.014Z,25.45
2022-08-24T22:04:13.465Z,25.49
2022-08-24T22:06:39.897Z,25.46
2022-08-24T22:09:07.457Z,25.40
2022-08-24T22:11:34.865Z,25.45
2022-08-24T22:14:02.583Z,25.43
2022-08-24T22:16:29.585Z,25.35
2022-08-24T22:18:56.225Z,25.37
2022-08-24T22:21:26.547Z,25.34
2022-08-24T22:23:52.971Z,25.28
2022-08-24T22:26:24.773Z,25.27
2022-08-24T22:28:51.427Z,25.27
2022-08-24T22:31:22.082Z,25.26
2022-08-24T22:33:49.505Z,25.25
2022-08-24T22:36:17.170Z,25.25
2022-08-24T22:38:44.172Z,25.15
2022-08-24T22:41:10.766Z,25.13
2022-08-24T22:43:56.166Z,25.11
2022-08-24T22:46:22.880Z,24.96
2022-08-24T22:48:49.409Z,24.88
2022-08-24T22:51:16.064Z,24.82
2022-08-24T22:53:42.661Z,24.78
2022-08-24T22:56:24.229Z,24.79
2022-08-24T22:58:51.698Z,24.68
2022-08-24T23:01:24.881Z,24.75
2022-08-24T23:03:52.831Z,24.54
2022-08-24T23:06:19.932Z,24.55
2022-08-24T23:08:46.382Z,24.40
2022-08-24T23:11:13.288Z,24.36
2022-08-24T23:13:39.844Z,24.29
2022-08-24T23:16:08.683Z,24.31
2022-08-24T23:18:54.280Z,24.23
2022-08-24T23:21:20.796Z,24.13
2022-08-24T23:23:48.328Z,24.05
2022-08-24T23:26:18.320Z,23.98
2022-08-24T23:28:45.144Z,23.96
2022-08-24T23:31:19.017Z,23.87
2022-08-24T23:33:45.837Z,23.88
2022-08-24T23:36:14.970Z,23.80
2022-08-24T23:38:42.247Z,23.83
2022-08-24T23:41:15.873Z,23.80
2022-08-24T23:43:43.220Z,23.75
2022-08-24T23:46:10.612Z,23.63
2022-08-24T23:48:38.175Z,23.45
2022-08-24T23:51:11.338Z,23.23
2022-08-24T23:53:38.798Z,23.05
2022-08-24T23:56:16.998Z,22.87
2022-08-24T23:58:44.110Z,22.82
